Aérodrome :
LOGIN :

S'inscrire | Disclaimer

   EN    FR    IT 

 










Légende :    VFR   VFR Marginal   IFR   IFR Intensif   IFR Très Intensif
Visi : 
Plafond : 
>= 8 km
>= 3000ft
5 à 8 km
1000 à 3000 ft
1500m à 5 km
500 à 1000 ft
800 à 1500m
200 à 500 ft
< 800m
< 200 ft
Symboles :   Orages  Brouillard  Fortes neiges  Fortes précipitations  Vent > 20 kt
SIGMETs :   Divers  Orages  Givrage  Turbulence  Onde Orograph.  Cendres Volcan.






- Altitude de l'aérodrome : 1046 ft
- Code IATA : FDE


ENBL - Bringeland

DERNIER METAR :
  • 171450Z 17010KT 9999 FEW025 BKN035 06/02 Q1001

METARs EXPIRÉS :
  • 171420Z 17007KT 9999 FEW025 BKN035 06/02 Q1001
  • 171350Z 17004KT 9999 FEW020 BKN035 06/02 Q1001
  • 171320Z 19009KT 150V240 9999 FEW017 SCT025 BKN032 06/02 Q1001
  • 171250Z 18005KT 090V260 9999 FEW017 SCT025 BKN032 06/03 Q1001

TAF N/A



MET'MAP, la Météo Aéronautique d'un coup d'oeil ! - Copyright ORBIFLY Décembre 2007 - Disclaimer

ORBIFLY MET'MAP TEAM :

Programmation & Développement : Alexandra Zaïnal
Sur une idée originale de : Baudouin d'Aumeries
Assistance à la programmation : Marc-Olivier Méhu
Soutien technique & logistique : Manuel Goepfert

Contact : metmap@orbifly.com




SOURCES & CREDITS :

   NOAA